AZU4145 SBEG-SBKP
Flight info
| Callsign | AZU4145 |
|---|---|
| Flight time | 3h 23m |
| Altitude | 35000 |
| Route | ETAXA UZ87 OVTUX/N0451F370 UZ87 PALCA UM411 UTLOT |
| Aircraft | E195/M-SDE3GILORVW/S |
Departure
| Time | 2026-05-05 15:24 |
|---|---|
| Airport | Eduardo Gomes International Airport (SBEG) |
Arrival
| Time | 2026-05-05 18:47 |
|---|---|
| Airport | Viracopos International Airport (SBKP) |
| Time | Latitude | Longitude | Altitude | Speed | Heading |
|---|---|---|---|---|---|
| 2026-05-05 15:00 | -3.03277 | -60.04581 | 243 ft | 0 kts | 359° |
| 2026-05-05 15:12 | -3.03276 | -60.04581 | 243 ft | 0 kts | 359° |
| 2026-05-05 15:12 | -3.03281 | -60.04580 | 242 ft | 2 kts | 358° |
| 2026-05-05 15:12 | -3.03296 | -60.04580 | 242 ft | 2 kts | 358° |
| 2026-05-05 15:12 | -3.03308 | -60.04580 | 241 ft | 0 kts | 358° |
| 2026-05-05 15:13 | -3.03321 | -60.04578 | 241 ft | 2 kts | 340° |
| 2026-05-05 15:13 | -3.03334 | -60.04570 | 240 ft | 2 kts | 317° |
| 2026-05-05 15:13 | -3.03343 | -60.04559 | 240 ft | 2 kts | 295° |
| 2026-05-05 15:13 | -3.03347 | -60.04544 | 241 ft | 2 kts | 273° |
| 2026-05-05 15:14 | -3.03347 | -60.04537 | 241 ft | 0 kts | 265° |
| 2026-05-05 15:16 | -3.03348 | -60.04543 | 241 ft | 2 kts | 262° |
| 2026-05-05 15:16 | -3.03352 | -60.04567 | 240 ft | 4 kts | 260° |
| 2026-05-05 15:16 | -3.03355 | -60.04608 | 239 ft | 6 kts | 269° |
| 2026-05-05 15:17 | -3.03354 | -60.04664 | 239 ft | 8 kts | 271° |
| 2026-05-05 15:17 | -3.03357 | -60.04730 | 237 ft | 10 kts | 259° |
| 2026-05-05 15:17 | -3.03392 | -60.04802 | 236 ft | 12 kts | 229° |
| 2026-05-05 15:17 | -3.03457 | -60.04868 | 234 ft | 14 kts | 217° |
| 2026-05-05 15:18 | -3.03527 | -60.04927 | 232 ft | 13 kts | 225° |
| 2026-05-05 15:18 | -3.03580 | -60.05013 | 231 ft | 15 kts | 249° |
| 2026-05-05 15:18 | -3.03610 | -60.05121 | 229 ft | 15 kts | 255° |
| 2026-05-05 15:18 | -3.03633 | -60.05206 | 228 ft | 13 kts | 255° |
| 2026-05-05 15:19 | -3.03652 | -60.05278 | 227 ft | 10 kts | 255° |
| 2026-05-05 15:19 | -3.03670 | -60.05355 | 226 ft | 11 kts | 259° |
| 2026-05-05 15:19 | -3.03683 | -60.05440 | 226 ft | 12 kts | 265° |
| 2026-05-05 15:19 | -3.03689 | -60.05536 | 224 ft | 14 kts | 266° |
| 2026-05-05 15:20 | -3.03692 | -60.05646 | 221 ft | 12 kts | 269° |
| 2026-05-05 15:20 | -3.03690 | -60.05738 | 219 ft | 14 kts | 270° |
| 2026-05-05 15:20 | -3.03690 | -60.05847 | 218 ft | 16 kts | 269° |
| 2026-05-05 15:20 | -3.03690 | -60.05944 | 219 ft | 10 kts | 270° |
| 2026-05-05 15:21 | -3.03689 | -60.06016 | 220 ft | 10 kts | 269° |
| 2026-05-05 15:21 | -3.03690 | -60.06084 | 221 ft | 9 kts | 270° |
| 2026-05-05 15:21 | -3.03707 | -60.06138 | 223 ft | 6 kts | 242° |
| 2026-05-05 15:21 | -3.03726 | -60.06160 | 225 ft | 1 kts | 224° |
| 2026-05-05 15:22 | -3.03740 | -60.06168 | 226 ft | 6 kts | 203° |
| 2026-05-05 15:22 | -3.03785 | -60.06175 | 228 ft | 5 kts | 178° |
| 2026-05-05 15:22 | -3.03819 | -60.06170 | 229 ft | 4 kts | 171° |
| 2026-05-05 15:22 | -3.03844 | -60.06166 | 229 ft | 3 kts | 171° |
| 2026-05-05 15:23 | -3.03860 | -60.06156 | 229 ft | 2 kts | 105° |
| 2026-05-05 15:23 | -3.03859 | -60.06145 | 229 ft | 0 kts | 84° |
| 2026-05-05 15:23 | -3.03859 | -60.06144 | 229 ft | 1 kts | 84° |
| 2026-05-05 15:23 | -3.03855 | -60.06022 | 225 ft | 51 kts | 90° |
| 2026-05-05 15:24 | -3.03859 | -60.05408 | 239 ft | 121 kts | 90° |
| 2026-05-05 15:24 | -3.03853 | -60.04357 | 310 ft | 169 kts | 90° |
| 2026-05-05 15:24 | -3.03847 | -60.03147 | 838 ft | 182 kts | 91° |
| 2026-05-05 15:24 | -3.04340 | -60.01930 | 1309 ft | 204 kts | 135° |
| 2026-05-05 15:25 | -3.05555 | -60.01225 | 2036 ft | 206 kts | 149° |
| 2026-05-05 15:25 | -3.06862 | -60.00483 | 2560 ft | 221 kts | 145° |
| 2026-05-05 15:25 | -3.08179 | -59.99654 | 3264 ft | 227 kts | 143° |
| 2026-05-05 15:25 | -3.09519 | -59.98760 | 3779 ft | 243 kts | 142° |
| 2026-05-05 15:26 | -3.10966 | -59.97763 | 4239 ft | 261 kts | 141° |
| 2026-05-05 15:26 | -3.12481 | -59.96703 | 4911 ft | 269 kts | 141° |
| 2026-05-05 15:26 | -3.14028 | -59.95612 | 5737 ft | 271 kts | 141° |
| 2026-05-05 15:26 | -3.15575 | -59.94515 | 6582 ft | 271 kts | 140° |
| 2026-05-05 15:27 | -3.17097 | -59.93433 | 7366 ft | 272 kts | 141° |
| 2026-05-05 15:27 | -3.18644 | -59.92331 | 8092 ft | 274 kts | 141° |
| 2026-05-05 15:27 | -3.20226 | -59.91204 | 8762 ft | 278 kts | 141° |
| 2026-05-05 15:27 | -3.21859 | -59.90041 | 9398 ft | 283 kts | 141° |
| 2026-05-05 15:28 | -3.23470 | -59.88893 | 10025 ft | 287 kts | 141° |
| 2026-05-05 15:28 | -3.25119 | -59.87719 | 10674 ft | 290 kts | 142° |
| 2026-05-05 15:28 | -3.26788 | -59.86530 | 11178 ft | 298 kts | 141° |
| 2026-05-05 15:28 | -3.28529 | -59.85289 | 11633 ft | 307 kts | 142° |
| 2026-05-05 15:29 | -3.30383 | -59.83969 | 12122 ft | 317 kts | 142° |
| 2026-05-05 15:29 | -3.32308 | -59.82598 | 12620 ft | 324 kts | 142° |
| 2026-05-05 15:29 | -3.34165 | -59.81274 | 13183 ft | 328 kts | 142° |
| 2026-05-05 15:29 | -3.36075 | -59.79913 | 13779 ft | 331 kts | 142° |
| 2026-05-05 15:30 | -3.37973 | -59.78561 | 14366 ft | 333 kts | 142° |
| 2026-05-05 15:30 | -3.39875 | -59.77205 | 14904 ft | 336 kts | 142° |
| 2026-05-05 15:30 | -3.41856 | -59.75794 | 15463 ft | 339 kts | 142° |
| 2026-05-05 15:30 | -3.43847 | -59.74374 | 15991 ft | 342 kts | 141° |
| 2026-05-05 15:31 | -3.45877 | -59.72927 | 16509 ft | 345 kts | 141° |
| 2026-05-05 15:31 | -3.47858 | -59.71515 | 16989 ft | 348 kts | 142° |
| 2026-05-05 15:31 | -3.49835 | -59.70106 | 17460 ft | 351 kts | 142° |
| 2026-05-05 15:31 | -3.51840 | -59.68677 | 17931 ft | 354 kts | 142° |
| 2026-05-05 15:32 | -3.53905 | -59.67318 | 18380 ft | 359 kts | 148° |
| 2026-05-05 15:32 | -3.56118 | -59.66122 | 18840 ft | 362 kts | 149° |
| 2026-05-05 15:32 | -3.58351 | -59.64920 | 19296 ft | 364 kts | 149° |
| 2026-05-05 15:32 | -3.60569 | -59.63725 | 19738 ft | 367 kts | 149° |
| 2026-05-05 15:33 | -3.62827 | -59.62509 | 20161 ft | 370 kts | 149° |
| 2026-05-05 15:33 | -3.65125 | -59.61270 | 20583 ft | 372 kts | 149° |
| 2026-05-05 15:33 | -3.67413 | -59.60038 | 20973 ft | 375 kts | 149° |
| 2026-05-05 15:33 | -3.69724 | -59.58793 | 21358 ft | 378 kts | 149° |
| 2026-05-05 15:34 | -3.72045 | -59.57542 | 21730 ft | 381 kts | 150° |
| 2026-05-05 15:34 | -3.74405 | -59.56271 | 22096 ft | 384 kts | 150° |
| 2026-05-05 15:34 | -3.76762 | -59.55001 | 22462 ft | 387 kts | 150° |
| 2026-05-05 15:34 | -3.79150 | -59.53714 | 22842 ft | 389 kts | 150° |
| 2026-05-05 15:35 | -3.81547 | -59.52422 | 23228 ft | 391 kts | 150° |
| 2026-05-05 15:35 | -3.83954 | -59.51125 | 23631 ft | 393 kts | 150° |
| 2026-05-05 15:35 | -3.86384 | -59.49815 | 24041 ft | 394 kts | 150° |
| 2026-05-05 15:35 | -3.88799 | -59.48513 | 24439 ft | 395 kts | 150° |
| 2026-05-05 15:36 | -3.91233 | -59.47201 | 24814 ft | 397 kts | 150° |
| 2026-05-05 15:36 | -3.93662 | -59.45892 | 25177 ft | 398 kts | 150° |
| 2026-05-05 15:36 | -3.96122 | -59.44566 | 25529 ft | 400 kts | 150° |
| 2026-05-05 15:36 | -3.98579 | -59.43240 | 25865 ft | 402 kts | 150° |
| 2026-05-05 15:37 | -4.01065 | -59.41900 | 26198 ft | 405 kts | 150° |
| 2026-05-05 15:37 | -4.03549 | -59.40561 | 26530 ft | 406 kts | 150° |
| 2026-05-05 15:37 | -4.06057 | -59.39209 | 26861 ft | 408 kts | 150° |
| 2026-05-05 15:37 | -4.08556 | -59.37861 | 27188 ft | 410 kts | 150° |
| 2026-05-05 15:38 | -4.11100 | -59.36488 | 27545 ft | 411 kts | 150° |
| 2026-05-05 15:38 | -4.13602 | -59.35138 | 27888 ft | 413 kts | 150° |
| 2026-05-05 15:38 | -4.16134 | -59.33773 | 28233 ft | 414 kts | 150° |
| 2026-05-05 15:38 | -4.18679 | -59.32400 | 28562 ft | 415 kts | 150° |
| 2026-05-05 15:39 | -4.21251 | -59.31014 | 28880 ft | 417 kts | 150° |
| 2026-05-05 15:39 | -4.23832 | -59.29623 | 29179 ft | 419 kts | 150° |
| 2026-05-05 15:39 | -4.26408 | -59.28234 | 29475 ft | 421 kts | 150° |
| 2026-05-05 15:39 | -4.28993 | -59.26840 | 29754 ft | 423 kts | 150° |
| 2026-05-05 15:40 | -4.31607 | -59.25431 | 30035 ft | 425 kts | 150° |
| 2026-05-05 15:40 | -4.34210 | -59.24027 | 30310 ft | 426 kts | 150° |
| 2026-05-05 15:40 | -4.36835 | -59.22612 | 30580 ft | 428 kts | 150° |
| 2026-05-05 15:40 | -4.39438 | -59.21208 | 30828 ft | 430 kts | 150° |
| 2026-05-05 15:41 | -4.42088 | -59.19778 | 31073 ft | 432 kts | 150° |
| 2026-05-05 15:41 | -4.44744 | -59.18346 | 31315 ft | 433 kts | 150° |
| 2026-05-05 15:41 | -4.47447 | -59.16887 | 31602 ft | 434 kts | 150° |
| 2026-05-05 15:41 | -4.50094 | -59.15459 | 31935 ft | 434 kts | 150° |
| 2026-05-05 15:42 | -4.52771 | -59.14016 | 32295 ft | 432 kts | 150° |
| 2026-05-05 15:42 | -4.55391 | -59.12602 | 32652 ft | 431 kts | 150° |
| 2026-05-05 15:42 | -4.58037 | -59.11174 | 33022 ft | 429 kts | 150° |
| 2026-05-05 15:42 | -4.60670 | -59.09753 | 33374 ft | 429 kts | 150° |
| 2026-05-05 15:43 | -4.63293 | -59.08337 | 33697 ft | 428 kts | 150° |
| 2026-05-05 15:43 | -4.65927 | -59.06916 | 34030 ft | 427 kts | 150° |
| 2026-05-05 15:43 | -4.68537 | -59.05506 | 34358 ft | 427 kts | 150° |
| 2026-05-05 15:43 | -4.71192 | -59.04073 | 34706 ft | 425 kts | 150° |
| 2026-05-05 15:44 | -4.73766 | -59.02684 | 34962 ft | 419 kts | 150° |
| 2026-05-05 15:44 | -4.78984 | -58.99866 | 34994 ft | 427 kts | 150° |
| 2026-05-05 15:45 | -4.84268 | -58.97012 | 34989 ft | 438 kts | 150° |
| 2026-05-05 15:45 | -4.89751 | -58.94050 | 34990 ft | 449 kts | 150° |
| 2026-05-05 15:46 | -4.95320 | -58.91042 | 34982 ft | 456 kts | 150° |
| 2026-05-05 15:46 | -5.00889 | -58.88032 | 34980 ft | 455 kts | 150° |
| 2026-05-05 15:47 | -5.06463 | -58.85020 | 34980 ft | 454 kts | 150° |
| 2026-05-05 15:47 | -5.12023 | -58.82014 | 34980 ft | 454 kts | 150° |
| 2026-05-05 15:48 | -5.17617 | -58.78990 | 34981 ft | 453 kts | 150° |
| 2026-05-05 15:48 | -5.23186 | -58.75979 | 34981 ft | 453 kts | 150° |
| 2026-05-05 15:49 | -5.28799 | -58.72942 | 34980 ft | 454 kts | 150° |
| 2026-05-05 15:49 | -5.34358 | -58.69935 | 34981 ft | 453 kts | 150° |
| 2026-05-05 15:50 | -5.39884 | -58.66944 | 34981 ft | 452 kts | 150° |
| 2026-05-05 15:50 | -5.45472 | -58.63919 | 34980 ft | 454 kts | 150° |
| 2026-05-05 15:51 | -5.51051 | -58.60899 | 34982 ft | 454 kts | 150° |
| 2026-05-05 15:51 | -5.56612 | -58.57888 | 34981 ft | 453 kts | 150° |
| 2026-05-05 15:52 | -5.62160 | -58.54883 | 34982 ft | 453 kts | 150° |
| 2026-05-05 15:52 | -5.67741 | -58.51860 | 34978 ft | 453 kts | 150° |
| 2026-05-05 15:53 | -5.73332 | -58.48830 | 34982 ft | 453 kts | 150° |
| 2026-05-05 15:53 | -5.78911 | -58.45807 | 34982 ft | 453 kts | 150° |
| 2026-05-05 15:54 | -5.84462 | -58.42798 | 34985 ft | 453 kts | 150° |
| 2026-05-05 15:54 | -5.90020 | -58.39785 | 34984 ft | 454 kts | 150° |
| 2026-05-05 15:55 | -5.95610 | -58.36753 | 34983 ft | 453 kts | 150° |
| 2026-05-05 15:55 | -6.01162 | -58.33741 | 34986 ft | 454 kts | 150° |
| 2026-05-05 15:56 | -6.06728 | -58.30721 | 34984 ft | 453 kts | 150° |
| 2026-05-05 15:56 | -6.12311 | -58.27691 | 34983 ft | 453 kts | 150° |
| 2026-05-05 15:57 | -6.17893 | -58.24661 | 34985 ft | 453 kts | 150° |
| 2026-05-05 15:57 | -6.23429 | -58.21655 | 34988 ft | 453 kts | 151° |
| 2026-05-05 15:58 | -6.29046 | -58.18605 | 34988 ft | 454 kts | 150° |
| 2026-05-05 15:58 | -6.34606 | -58.15584 | 34986 ft | 455 kts | 150° |
| 2026-05-05 15:59 | -6.40207 | -58.12541 | 34989 ft | 455 kts | 150° |
| 2026-05-05 15:59 | -6.45797 | -58.09503 | 34997 ft | 454 kts | 150° |
| 2026-05-05 16:00 | -6.51366 | -58.06475 | 35003 ft | 455 kts | 151° |
| 2026-05-05 16:00 | -6.56972 | -58.03427 | 35008 ft | 454 kts | 151° |
| 2026-05-05 16:01 | -6.62525 | -58.00406 | 35015 ft | 456 kts | 151° |
| 2026-05-05 16:01 | -6.68138 | -57.97353 | 35017 ft | 455 kts | 150° |
| 2026-05-05 16:02 | -6.73731 | -57.94309 | 35026 ft | 456 kts | 151° |
| 2026-05-05 16:02 | -6.79303 | -57.91276 | 35019 ft | 455 kts | 151° |
| 2026-05-05 16:03 | -6.84900 | -57.88228 | 35021 ft | 456 kts | 151° |
| 2026-05-05 16:03 | -6.90500 | -57.85178 | 35019 ft | 455 kts | 151° |
| 2026-05-05 16:04 | -6.96078 | -57.82140 | 35021 ft | 456 kts | 151° |
| 2026-05-05 16:04 | -7.01684 | -57.79084 | 35024 ft | 456 kts | 151° |
| 2026-05-05 16:05 | -7.07272 | -57.76039 | 35022 ft | 457 kts | 151° |
| 2026-05-05 16:05 | -7.12874 | -57.72984 | 35014 ft | 457 kts | 151° |
| 2026-05-05 16:06 | -7.18490 | -57.69921 | 35010 ft | 457 kts | 151° |
| 2026-05-05 16:06 | -7.24114 | -57.66853 | 35008 ft | 456 kts | 151° |
| 2026-05-05 16:07 | -7.29695 | -57.63807 | 35012 ft | 455 kts | 151° |
| 2026-05-05 16:07 | -7.35301 | -57.60747 | 35011 ft | 456 kts | 151° |
| 2026-05-05 16:08 | -7.40876 | -57.57703 | 35005 ft | 456 kts | 151° |
| 2026-05-05 16:08 | -7.46469 | -57.54649 | 34999 ft | 456 kts | 151° |
| 2026-05-05 16:09 | -7.52062 | -57.51593 | 34992 ft | 456 kts | 151° |
| 2026-05-05 16:09 | -7.57689 | -57.48518 | 34987 ft | 456 kts | 151° |
| 2026-05-05 16:10 | -7.63256 | -57.45475 | 34990 ft | 456 kts | 151° |
| 2026-05-05 16:10 | -7.68864 | -57.42408 | 34990 ft | 456 kts | 151° |
| 2026-05-05 16:11 | -7.74469 | -57.39342 | 34989 ft | 456 kts | 151° |
| 2026-05-05 16:12 | -7.85644 | -57.33226 | 34995 ft | 457 kts | 151° |
| 2026-05-05 16:13 | -7.99605 | -57.25581 | 34994 ft | 456 kts | 151° |
| 2026-05-05 16:13 | -8.05237 | -57.22496 | 35001 ft | 456 kts | 151° |
| 2026-05-05 16:14 | -8.16427 | -57.16361 | 35019 ft | 456 kts | 151° |
| 2026-05-05 16:15 | -8.27585 | -57.10241 | 35023 ft | 457 kts | 151° |
| 2026-05-05 16:16 | -8.38801 | -57.04084 | 35032 ft | 457 kts | 151° |
| 2026-05-05 16:17 | -8.47188 | -56.99478 | 35022 ft | 456 kts | 151° |
| 2026-05-05 16:18 | -8.55578 | -56.94868 | 35014 ft | 457 kts | 151° |
| 2026-05-05 16:19 | -8.64021 | -56.90226 | 35006 ft | 457 kts | 151° |
| 2026-05-05 16:19 | -8.72405 | -56.85615 | 34993 ft | 457 kts | 152° |
| 2026-05-05 16:20 | -8.83606 | -56.79450 | 34991 ft | 457 kts | 152° |
| 2026-05-05 16:22 | -8.97621 | -56.71730 | 34986 ft | 457 kts | 152° |
| 2026-05-05 16:23 | -9.08834 | -56.65549 | 34988 ft | 459 kts | 152° |
| 2026-05-05 16:23 | -9.17267 | -56.60897 | 34989 ft | 459 kts | 152° |
| 2026-05-05 16:24 | -9.22883 | -56.57798 | 34986 ft | 460 kts | 152° |
| 2026-05-05 16:25 | -9.31358 | -56.53120 | 34986 ft | 460 kts | 152° |
| 2026-05-05 16:25 | -9.39800 | -56.48456 | 34983 ft | 460 kts | 152° |
| 2026-05-05 16:26 | -9.51061 | -56.42231 | 34998 ft | 459 kts | 152° |
| 2026-05-05 16:27 | -9.56654 | -56.39138 | 35006 ft | 460 kts | 152° |
| 2026-05-05 16:27 | -9.62301 | -56.36013 | 35010 ft | 460 kts | 152° |
| 2026-05-05 16:28 | -9.67915 | -56.32906 | 35011 ft | 460 kts | 152° |
| 2026-05-05 16:28 | -9.73541 | -56.29790 | 35016 ft | 459 kts | 152° |
| 2026-05-05 16:29 | -9.79158 | -56.26678 | 35020 ft | 460 kts | 152° |
| 2026-05-05 16:29 | -9.84787 | -56.23557 | 35014 ft | 460 kts | 152° |
| 2026-05-05 16:30 | -9.90417 | -56.20435 | 35037 ft | 460 kts | 152° |
| 2026-05-05 16:30 | -9.96028 | -56.17322 | 35029 ft | 461 kts | 152° |
| 2026-05-05 16:31 | -10.01696 | -56.14176 | 35029 ft | 461 kts | 152° |
| 2026-05-05 16:31 | -10.07352 | -56.11035 | 35027 ft | 461 kts | 152° |
| 2026-05-05 16:32 | -10.12979 | -56.07910 | 35032 ft | 461 kts | 152° |
| 2026-05-05 16:32 | -10.18625 | -56.04772 | 35024 ft | 461 kts | 152° |
| 2026-05-05 16:33 | -10.24237 | -56.01652 | 35024 ft | 459 kts | 152° |
| 2026-05-05 16:33 | -10.29874 | -55.98518 | 35028 ft | 459 kts | 152° |
| 2026-05-05 16:34 | -10.35483 | -55.95396 | 35022 ft | 460 kts | 152° |
| 2026-05-05 16:34 | -10.41123 | -55.92258 | 35018 ft | 461 kts | 152° |
| 2026-05-05 16:35 | -10.46795 | -55.89099 | 35018 ft | 461 kts | 152° |
| 2026-05-05 16:35 | -10.52411 | -55.85970 | 35022 ft | 461 kts | 152° |
| 2026-05-05 16:36 | -10.58052 | -55.82827 | 35025 ft | 461 kts | 152° |
| 2026-05-05 16:36 | -10.63699 | -55.79678 | 35027 ft | 460 kts | 152° |
| 2026-05-05 16:37 | -10.69322 | -55.76542 | 35036 ft | 461 kts | 152° |
| 2026-05-05 16:37 | -10.74934 | -55.73410 | 35040 ft | 461 kts | 152° |
| 2026-05-05 16:38 | -10.80621 | -55.70235 | 35035 ft | 462 kts | 152° |
| 2026-05-05 16:38 | -10.86247 | -55.67094 | 35031 ft | 462 kts | 152° |
| 2026-05-05 16:39 | -10.91897 | -55.63937 | 35029 ft | 462 kts | 152° |
| 2026-05-05 16:39 | -10.97545 | -55.60779 | 35023 ft | 461 kts | 152° |
| 2026-05-05 16:40 | -11.03173 | -55.57632 | 35017 ft | 462 kts | 152° |
| 2026-05-05 16:40 | -11.08822 | -55.54471 | 35023 ft | 461 kts | 152° |
| 2026-05-05 16:41 | -11.14486 | -55.51302 | 35025 ft | 461 kts | 152° |
| 2026-05-05 16:41 | -11.20128 | -55.48141 | 35024 ft | 461 kts | 152° |
| 2026-05-05 16:42 | -11.25751 | -55.44995 | 35023 ft | 460 kts | 153° |
| 2026-05-05 16:42 | -11.31601 | -55.42236 | 35024 ft | 460 kts | 156° |
| 2026-05-05 16:43 | -11.37387 | -55.39499 | 35038 ft | 460 kts | 156° |
| 2026-05-05 16:43 | -11.43212 | -55.36738 | 35037 ft | 460 kts | 156° |
| 2026-05-05 16:44 | -11.49064 | -55.33961 | 35040 ft | 460 kts | 156° |
| 2026-05-05 16:44 | -11.54884 | -55.31199 | 35050 ft | 460 kts | 156° |
| 2026-05-05 16:45 | -11.60663 | -55.28455 | 35051 ft | 460 kts | 156° |
| 2026-05-05 16:45 | -11.66478 | -55.25692 | 35053 ft | 459 kts | 156° |
| 2026-05-05 16:46 | -11.72313 | -55.22919 | 35052 ft | 459 kts | 156° |
| 2026-05-05 16:46 | -11.78003 | -55.19973 | 35057 ft | 460 kts | 151° |
| 2026-05-05 16:47 | -11.83590 | -55.16763 | 35048 ft | 460 kts | 152° |
| 2026-05-05 16:47 | -11.89210 | -55.13561 | 35043 ft | 460 kts | 152° |
| 2026-05-05 16:48 | -11.94818 | -55.10366 | 35042 ft | 460 kts | 152° |
| 2026-05-05 16:48 | -12.00383 | -55.07195 | 35038 ft | 459 kts | 152° |
| 2026-05-05 16:49 | -12.06001 | -55.03991 | 35041 ft | 460 kts | 152° |
| 2026-05-05 16:49 | -12.11609 | -55.00792 | 35050 ft | 461 kts | 152° |
| 2026-05-05 16:50 | -12.17209 | -54.97596 | 35050 ft | 459 kts | 152° |
| 2026-05-05 16:50 | -12.22805 | -54.94400 | 35050 ft | 459 kts | 152° |
| 2026-05-05 16:51 | -12.28404 | -54.91202 | 35057 ft | 459 kts | 152° |
| 2026-05-05 16:51 | -12.34017 | -54.87994 | 35048 ft | 459 kts | 152° |
| 2026-05-05 16:52 | -12.39577 | -54.84815 | 35042 ft | 459 kts | 152° |
| 2026-05-05 16:52 | -12.45169 | -54.81615 | 35034 ft | 458 kts | 152° |
| 2026-05-05 16:53 | -12.50757 | -54.78461 | 35028 ft | 458 kts | 152° |
| 2026-05-05 16:53 | -12.56352 | -54.75307 | 35022 ft | 458 kts | 152° |
| 2026-05-05 16:54 | -12.61973 | -54.72137 | 35027 ft | 459 kts | 152° |
| 2026-05-05 16:54 | -12.67572 | -54.68980 | 35027 ft | 459 kts | 152° |
| 2026-05-05 16:55 | -12.73194 | -54.65810 | 35025 ft | 460 kts | 152° |
| 2026-05-05 16:55 | -12.78805 | -54.62644 | 35021 ft | 459 kts | 152° |
| 2026-05-05 16:56 | -12.84395 | -54.59488 | 35026 ft | 460 kts | 152° |
| 2026-05-05 16:56 | -12.90030 | -54.56309 | 35030 ft | 459 kts | 152° |
| 2026-05-05 16:57 | -12.95655 | -54.53139 | 35031 ft | 460 kts | 152° |
| 2026-05-05 16:57 | -13.01232 | -54.49993 | 35033 ft | 460 kts | 152° |
| 2026-05-05 16:58 | -13.06862 | -54.46816 | 35031 ft | 460 kts | 152° |
| 2026-05-05 16:58 | -13.12480 | -54.43644 | 35033 ft | 460 kts | 153° |
| 2026-05-05 16:59 | -13.18097 | -54.40470 | 35030 ft | 460 kts | 153° |
| 2026-05-05 16:59 | -13.23727 | -54.37288 | 35034 ft | 459 kts | 153° |
| 2026-05-05 17:00 | -13.29350 | -54.34109 | 35028 ft | 459 kts | 152° |
| 2026-05-05 17:00 | -13.34958 | -54.30936 | 35039 ft | 459 kts | 153° |
| 2026-05-05 17:01 | -13.40565 | -54.27762 | 35040 ft | 459 kts | 153° |
| 2026-05-05 17:01 | -13.46155 | -54.24596 | 35042 ft | 460 kts | 153° |
| 2026-05-05 17:02 | -13.51754 | -54.21422 | 35051 ft | 460 kts | 153° |
| 2026-05-05 17:02 | -13.57385 | -54.18229 | 35050 ft | 461 kts | 153° |
| 2026-05-05 17:03 | -13.63010 | -54.15038 | 35055 ft | 459 kts | 153° |
| 2026-05-05 17:03 | -13.68606 | -54.11861 | 35061 ft | 459 kts | 153° |
| 2026-05-05 17:04 | -13.74223 | -54.08671 | 35065 ft | 461 kts | 153° |
| 2026-05-05 17:04 | -13.79836 | -54.05481 | 35067 ft | 460 kts | 153° |
| 2026-05-05 17:05 | -13.85483 | -54.02271 | 35083 ft | 461 kts | 153° |
| 2026-05-05 17:05 | -13.91074 | -53.99089 | 35084 ft | 460 kts | 153° |
| 2026-05-05 17:06 | -13.96701 | -53.95887 | 35089 ft | 461 kts | 153° |
| 2026-05-05 17:06 | -14.02324 | -53.92685 | 35100 ft | 460 kts | 153° |
| 2026-05-05 17:07 | -14.07952 | -53.89477 | 35102 ft | 460 kts | 153° |
| 2026-05-05 17:07 | -14.13539 | -53.86292 | 35103 ft | 459 kts | 153° |
| 2026-05-05 17:08 | -14.19177 | -53.83074 | 35109 ft | 460 kts | 154° |
| 2026-05-05 17:08 | -14.24768 | -53.79883 | 35105 ft | 459 kts | 154° |
| 2026-05-05 17:09 | -14.30354 | -53.76693 | 35109 ft | 459 kts | 154° |
| 2026-05-05 17:09 | -14.35967 | -53.73485 | 35102 ft | 458 kts | 154° |
| 2026-05-05 17:10 | -14.41568 | -53.70340 | 35096 ft | 457 kts | 156° |
| 2026-05-05 17:10 | -14.47269 | -53.67373 | 35101 ft | 456 kts | 156° |
| 2026-05-05 17:11 | -14.52974 | -53.64389 | 35103 ft | 457 kts | 156° |
| 2026-05-05 17:11 | -14.58573 | -53.61320 | 35098 ft | 457 kts | 153° |
| 2026-05-05 17:12 | -14.64127 | -53.58017 | 35096 ft | 457 kts | 153° |
| 2026-05-05 17:12 | -14.69670 | -53.54734 | 35102 ft | 457 kts | 153° |
| 2026-05-05 17:13 | -14.75181 | -53.51470 | 35106 ft | 456 kts | 153° |
| 2026-05-05 17:13 | -14.80707 | -53.48195 | 35111 ft | 456 kts | 153° |
| 2026-05-05 17:14 | -14.86238 | -53.44915 | 35108 ft | 456 kts | 153° |
| 2026-05-05 17:14 | -14.91761 | -53.41638 | 35113 ft | 455 kts | 154° |
| 2026-05-05 17:15 | -14.97258 | -53.38374 | 35110 ft | 455 kts | 154° |
| 2026-05-05 17:15 | -15.02782 | -53.35119 | 35105 ft | 454 kts | 155° |
| 2026-05-05 17:16 | -15.08328 | -53.31931 | 35088 ft | 454 kts | 154° |
| 2026-05-05 17:16 | -15.13861 | -53.28745 | 35093 ft | 454 kts | 154° |
| 2026-05-05 17:17 | -15.19383 | -53.25563 | 35088 ft | 453 kts | 154° |
| 2026-05-05 17:17 | -15.24952 | -53.22353 | 35085 ft | 453 kts | 154° |
| 2026-05-05 17:18 | -15.30446 | -53.19183 | 35089 ft | 453 kts | 154° |
| 2026-05-05 17:18 | -15.35979 | -53.15989 | 35090 ft | 452 kts | 154° |
| 2026-05-05 17:19 | -15.41465 | -53.12820 | 35090 ft | 452 kts | 154° |
| 2026-05-05 17:19 | -15.46972 | -53.09638 | 35092 ft | 451 kts | 154° |
| 2026-05-05 17:20 | -15.52442 | -53.06467 | 35091 ft | 450 kts | 154° |
| 2026-05-05 17:20 | -15.57924 | -53.03289 | 35088 ft | 450 kts | 154° |
| 2026-05-05 17:21 | -15.63385 | -53.00120 | 35077 ft | 450 kts | 154° |
| 2026-05-05 17:22 | -15.71623 | -52.95336 | 35070 ft | 449 kts | 154° |
| 2026-05-05 17:22 | -15.77068 | -52.92173 | 35058 ft | 449 kts | 154° |
| 2026-05-05 17:23 | -15.82523 | -52.89001 | 35055 ft | 448 kts | 154° |
| 2026-05-05 17:23 | -15.87983 | -52.85824 | 35052 ft | 447 kts | 154° |
| 2026-05-05 17:24 | -15.93408 | -52.82666 | 35051 ft | 447 kts | 154° |
| 2026-05-05 17:24 | -15.98875 | -52.79481 | 35053 ft | 448 kts | 154° |
| 2026-05-05 17:25 | -16.04315 | -52.76310 | 35055 ft | 446 kts | 154° |
| 2026-05-05 17:25 | -16.09737 | -52.73147 | 35058 ft | 445 kts | 154° |
| 2026-05-05 17:26 | -16.15163 | -52.69980 | 35076 ft | 445 kts | 155° |
| 2026-05-05 17:26 | -16.20570 | -52.66822 | 35076 ft | 446 kts | 155° |
| 2026-05-05 17:27 | -16.25983 | -52.63659 | 35080 ft | 445 kts | 155° |
| 2026-05-05 17:27 | -16.31367 | -52.60510 | 35087 ft | 443 kts | 155° |
| 2026-05-05 17:28 | -16.36764 | -52.57353 | 35089 ft | 444 kts | 155° |
| 2026-05-05 17:28 | -16.42170 | -52.54188 | 35086 ft | 443 kts | 155° |
| 2026-05-05 17:29 | -16.47569 | -52.51024 | 35096 ft | 442 kts | 155° |
| 2026-05-05 17:29 | -16.52939 | -52.47876 | 35103 ft | 443 kts | 155° |
| 2026-05-05 17:29 | -16.55590 | -52.46319 | 35105 ft | 429 kts | 155° |
| 2026-05-05 17:30 | -16.58169 | -52.44806 | 35058 ft | 423 kts | 155° |
| 2026-05-05 17:30 | -16.63333 | -52.41777 | 35010 ft | 429 kts | 155° |
| 2026-05-05 17:31 | -16.68600 | -52.38689 | 35043 ft | 437 kts | 155° |
| 2026-05-05 17:31 | -16.73922 | -52.35569 | 35124 ft | 443 kts | 155° |
| 2026-05-05 17:31 | -16.76614 | -52.33991 | 35293 ft | 445 kts | 155° |
| 2026-05-05 17:32 | -16.79303 | -52.32411 | 35616 ft | 442 kts | 155° |
| 2026-05-05 17:32 | -16.81987 | -52.30836 | 35930 ft | 440 kts | 155° |
| 2026-05-05 17:32 | -16.84671 | -52.29261 | 36217 ft | 439 kts | 155° |
| 2026-05-05 17:32 | -16.87330 | -52.27699 | 36471 ft | 438 kts | 155° |
| 2026-05-05 17:33 | -16.89995 | -52.26134 | 36720 ft | 438 kts | 155° |
| 2026-05-05 17:33 | -16.92657 | -52.24569 | 36951 ft | 438 kts | 155° |
| 2026-05-05 17:33 | -16.95304 | -52.23013 | 37124 ft | 439 kts | 155° |
| 2026-05-05 17:33 | -16.97985 | -52.21437 | 37326 ft | 437 kts | 155° |
| 2026-05-05 17:34 | -17.00606 | -52.19894 | 37811 ft | 431 kts | 156° |
| 2026-05-05 17:34 | -17.03217 | -52.18359 | 38043 ft | 432 kts | 156° |
| 2026-05-05 17:34 | -17.05856 | -52.16808 | 37994 ft | 437 kts | 156° |
| 2026-05-05 17:35 | -17.11254 | -52.13687 | 38058 ft | 443 kts | 156° |
| 2026-05-05 17:35 | -17.13939 | -52.12133 | 38218 ft | 443 kts | 156° |
| 2026-05-05 17:35 | -17.16648 | -52.10565 | 38413 ft | 443 kts | 156° |
| 2026-05-05 17:35 | -17.19340 | -52.09005 | 38641 ft | 442 kts | 156° |
| 2026-05-05 17:36 | -17.22055 | -52.07433 | 38860 ft | 441 kts | 156° |
| 2026-05-05 17:36 | -17.24735 | -52.05880 | 39036 ft | 442 kts | 156° |
| 2026-05-05 17:36 | -17.27412 | -52.04328 | 39359 ft | 439 kts | 156° |
| 2026-05-05 17:36 | -17.30098 | -52.02771 | 39198 ft | 442 kts | 157° |
| 2026-05-05 17:37 | -17.32806 | -52.01199 | 39271 ft | 441 kts | 156° |
| 2026-05-05 17:37 | -17.38226 | -51.98054 | 39254 ft | 441 kts | 156° |
| 2026-05-05 17:38 | -17.43543 | -51.94965 | 39246 ft | 433 kts | 157° |
| 2026-05-05 17:38 | -17.48878 | -51.91866 | 39264 ft | 441 kts | 157° |
| 2026-05-05 17:39 | -17.54260 | -51.88735 | 39265 ft | 439 kts | 157° |
| 2026-05-05 17:39 | -17.59599 | -51.85628 | 39260 ft | 439 kts | 156° |
| 2026-05-05 17:40 | -17.64943 | -51.82515 | 39257 ft | 438 kts | 157° |
| 2026-05-05 17:40 | -17.70273 | -51.79410 | 39256 ft | 439 kts | 157° |
| 2026-05-05 17:41 | -17.75656 | -51.76271 | 39256 ft | 439 kts | 157° |
| 2026-05-05 17:41 | -17.80990 | -51.73157 | 39249 ft | 438 kts | 157° |
| 2026-05-05 17:42 | -17.86373 | -51.70014 | 39246 ft | 440 kts | 157° |
| 2026-05-05 17:42 | -17.91692 | -51.66906 | 39243 ft | 438 kts | 157° |
| 2026-05-05 17:43 | -17.97057 | -51.63769 | 39229 ft | 437 kts | 157° |
| 2026-05-05 17:43 | -18.02372 | -51.60658 | 39236 ft | 438 kts | 157° |
| 2026-05-05 17:44 | -18.07735 | -51.57517 | 39233 ft | 437 kts | 157° |
| 2026-05-05 17:44 | -18.13080 | -51.54385 | 39245 ft | 437 kts | 157° |
| 2026-05-05 17:45 | -18.18390 | -51.51271 | 39240 ft | 438 kts | 157° |
| 2026-05-05 17:45 | -18.23696 | -51.48157 | 39239 ft | 436 kts | 158° |
| 2026-05-05 17:46 | -18.28992 | -51.44951 | 39230 ft | 438 kts | 156° |
| 2026-05-05 17:46 | -18.34278 | -51.41678 | 39224 ft | 438 kts | 156° |
| 2026-05-05 17:47 | -18.39534 | -51.38424 | 39221 ft | 436 kts | 156° |
| 2026-05-05 17:47 | -18.44801 | -51.35161 | 39216 ft | 436 kts | 156° |
| 2026-05-05 17:48 | -18.50040 | -51.31914 | 39200 ft | 439 kts | 156° |
| 2026-05-05 17:48 | -18.55277 | -51.28666 | 39205 ft | 436 kts | 156° |
| 2026-05-05 17:49 | -18.60526 | -51.25409 | 39191 ft | 437 kts | 156° |
| 2026-05-05 17:49 | -18.65808 | -51.22128 | 39183 ft | 437 kts | 156° |
| 2026-05-05 17:50 | -18.71033 | -51.18881 | 39178 ft | 437 kts | 156° |
| 2026-05-05 17:50 | -18.76300 | -51.15604 | 39178 ft | 435 kts | 156° |
| 2026-05-05 17:51 | -18.81505 | -51.12365 | 39171 ft | 437 kts | 156° |
| 2026-05-05 17:51 | -18.86744 | -51.09101 | 39166 ft | 436 kts | 156° |
| 2026-05-05 17:52 | -18.91973 | -51.05842 | 39170 ft | 435 kts | 157° |
| 2026-05-05 17:52 | -18.97219 | -51.02570 | 39166 ft | 436 kts | 157° |
| 2026-05-05 17:53 | -19.02442 | -50.99277 | 39172 ft | 434 kts | 156° |
| 2026-05-05 17:53 | -19.07590 | -50.95903 | 39160 ft | 437 kts | 156° |
| 2026-05-05 17:54 | -19.12736 | -50.92535 | 39168 ft | 434 kts | 156° |
| 2026-05-05 17:54 | -19.17894 | -50.89157 | 39166 ft | 434 kts | 156° |
| 2026-05-05 17:55 | -19.23044 | -50.85782 | 39160 ft | 434 kts | 156° |
| 2026-05-05 17:55 | -19.28194 | -50.82402 | 39158 ft | 433 kts | 156° |
| 2026-05-05 17:56 | -19.33297 | -50.79054 | 39157 ft | 433 kts | 156° |
| 2026-05-05 17:56 | -19.38427 | -50.75684 | 39155 ft | 432 kts | 156° |
| 2026-05-05 17:57 | -19.43531 | -50.72329 | 39158 ft | 432 kts | 156° |
| 2026-05-05 17:57 | -19.48672 | -50.68946 | 39159 ft | 429 kts | 156° |
| 2026-05-05 17:58 | -19.53746 | -50.65606 | 39155 ft | 431 kts | 156° |
| 2026-05-05 17:58 | -19.58889 | -50.62217 | 39159 ft | 433 kts | 156° |
| 2026-05-05 17:59 | -19.64007 | -50.58842 | 39162 ft | 431 kts | 156° |
| 2026-05-05 17:59 | -19.69124 | -50.55513 | 39152 ft | 431 kts | 157° |
| 2026-05-05 18:00 | -19.74198 | -50.52241 | 39168 ft | 428 kts | 157° |
| 2026-05-05 18:00 | -19.79310 | -50.48940 | 39151 ft | 427 kts | 157° |
| 2026-05-05 18:01 | -19.84414 | -50.45644 | 39154 ft | 428 kts | 158° |
| 2026-05-05 18:01 | -19.89496 | -50.42358 | 39168 ft | 430 kts | 158° |
| 2026-05-05 18:02 | -19.94594 | -50.39059 | 39169 ft | 426 kts | 158° |
| 2026-05-05 18:02 | -19.99682 | -50.35765 | 39173 ft | 429 kts | 158° |
| 2026-05-05 18:03 | -20.04754 | -50.32478 | 39154 ft | 426 kts | 158° |
| 2026-05-05 18:03 | -20.09831 | -50.29185 | 39165 ft | 425 kts | 157° |
| 2026-05-05 18:03 | -20.12307 | -50.27615 | 39170 ft | 408 kts | 160° |
| 2026-05-05 18:04 | -20.14786 | -50.26162 | 39126 ft | 403 kts | 160° |
| 2026-05-05 18:04 | -20.19667 | -50.23276 | 39036 ft | 403 kts | 160° |
| 2026-05-05 18:05 | -20.24605 | -50.20349 | 38965 ft | 402 kts | 160° |
| 2026-05-05 18:05 | -20.29485 | -50.17451 | 38912 ft | 401 kts | 160° |
| 2026-05-05 18:06 | -20.34381 | -50.14545 | 38856 ft | 404 kts | 160° |
| 2026-05-05 18:06 | -20.39295 | -50.11623 | 38844 ft | 404 kts | 160° |
| 2026-05-05 18:07 | -20.44214 | -50.08697 | 38832 ft | 402 kts | 160° |
| 2026-05-05 18:07 | -20.49079 | -50.05801 | 38818 ft | 401 kts | 160° |
| 2026-05-05 18:08 | -20.53949 | -50.02899 | 38845 ft | 400 kts | 160° |
| 2026-05-05 18:08 | -20.58814 | -49.99999 | 38966 ft | 401 kts | 160° |
| 2026-05-05 18:09 | -20.63684 | -49.97094 | 39084 ft | 403 kts | 160° |
| 2026-05-05 18:09 | -20.68587 | -49.94167 | 39188 ft | 406 kts | 160° |
| 2026-05-05 18:10 | -20.73607 | -49.91167 | 39182 ft | 415 kts | 160° |
| 2026-05-05 18:10 | -20.78665 | -49.88142 | 39186 ft | 418 kts | 160° |
| 2026-05-05 18:11 | -20.83734 | -49.85108 | 39178 ft | 417 kts | 160° |
| 2026-05-05 18:11 | -20.88803 | -49.82071 | 39182 ft | 413 kts | 160° |
| 2026-05-05 18:12 | -20.93845 | -49.79051 | 39178 ft | 417 kts | 160° |
| 2026-05-05 18:12 | -20.98909 | -49.76012 | 39179 ft | 416 kts | 160° |
| 2026-05-05 18:13 | -21.03954 | -49.72984 | 39183 ft | 415 kts | 160° |
| 2026-05-05 18:13 | -21.08956 | -49.69980 | 39182 ft | 415 kts | 160° |
| 2026-05-05 18:14 | -21.14045 | -49.66919 | 39201 ft | 413 kts | 160° |
| 2026-05-05 18:14 | -21.19069 | -49.63897 | 39202 ft | 413 kts | 160° |
| 2026-05-05 18:15 | -21.24125 | -49.60852 | 39201 ft | 413 kts | 160° |
| 2026-05-05 18:15 | -21.29113 | -49.57846 | 39202 ft | 413 kts | 160° |
| 2026-05-05 18:16 | -21.34153 | -49.54805 | 39206 ft | 412 kts | 160° |
| 2026-05-05 18:16 | -21.39181 | -49.51771 | 39205 ft | 414 kts | 161° |
| 2026-05-05 18:17 | -21.44198 | -49.48740 | 39210 ft | 415 kts | 160° |
| 2026-05-05 18:17 | -21.49213 | -49.45708 | 39215 ft | 414 kts | 160° |
| 2026-05-05 18:18 | -21.54222 | -49.42677 | 39213 ft | 411 kts | 160° |
| 2026-05-05 18:18 | -21.59253 | -49.39631 | 39210 ft | 412 kts | 161° |
| 2026-05-05 18:19 | -21.64280 | -49.36584 | 39215 ft | 412 kts | 161° |
| 2026-05-05 18:19 | -21.69277 | -49.33553 | 39199 ft | 414 kts | 161° |
| 2026-05-05 18:20 | -21.74283 | -49.30515 | 39201 ft | 414 kts | 160° |
| 2026-05-05 18:20 | -21.79308 | -49.27461 | 39204 ft | 412 kts | 160° |
| 2026-05-05 18:21 | -21.84295 | -49.24429 | 39205 ft | 413 kts | 160° |
| 2026-05-05 18:21 | -21.89306 | -49.21381 | 39206 ft | 414 kts | 160° |
| 2026-05-05 18:22 | -21.94364 | -49.18300 | 39206 ft | 414 kts | 160° |
| 2026-05-05 18:22 | -21.99373 | -49.15247 | 39198 ft | 413 kts | 161° |
| 2026-05-05 18:23 | -22.04396 | -49.12183 | 39206 ft | 416 kts | 160° |
| 2026-05-05 18:23 | -22.09027 | -49.08182 | 39231 ft | 439 kts | 141° |
| 2026-05-05 18:23 | -22.10916 | -49.05529 | 39232 ft | 452 kts | 133° |
| 2026-05-05 18:24 | -22.12432 | -49.02500 | 39250 ft | 466 kts | 124° |
| 2026-05-05 18:24 | -22.13511 | -48.99152 | 39249 ft | 481 kts | 114° |
| 2026-05-05 18:24 | -22.14264 | -48.95600 | 39249 ft | 480 kts | 115° |
| 2026-05-05 18:25 | -22.16219 | -48.88901 | 39229 ft | 457 kts | 119° |
| 2026-05-05 18:25 | -22.18246 | -48.82466 | 39202 ft | 447 kts | 120° |
| 2026-05-05 18:25 | -22.19237 | -48.79325 | 38759 ft | 437 kts | 120° |
| 2026-05-05 18:26 | -22.20208 | -48.76255 | 38291 ft | 429 kts | 120° |
| 2026-05-05 18:26 | -22.21174 | -48.73205 | 37295 ft | 441 kts | 118° |
| 2026-05-05 18:26 | -22.22204 | -48.69961 | 35749 ft | 467 kts | 116° |
| 2026-05-05 18:26 | -22.23236 | -48.66668 | 35008 ft | 461 kts | 115° |
| 2026-05-05 18:27 | -22.24261 | -48.63409 | 34453 ft | 456 kts | 115° |
| 2026-05-05 18:27 | -22.25288 | -48.60147 | 33967 ft | 458 kts | 114° |
| 2026-05-05 18:27 | -22.26306 | -48.56910 | 33459 ft | 462 kts | 114° |
| 2026-05-05 18:27 | -22.27350 | -48.53585 | 32963 ft | 464 kts | 114° |
| 2026-05-05 18:28 | -22.29419 | -48.46992 | 31935 ft | 464 kts | 113° |
| 2026-05-05 18:28 | -22.30449 | -48.43705 | 31426 ft | 465 kts | 113° |
| 2026-05-05 18:28 | -22.31494 | -48.40371 | 30908 ft | 464 kts | 113° |
| 2026-05-05 18:29 | -22.32520 | -48.37088 | 30391 ft | 459 kts | 113° |
| 2026-05-05 18:29 | -22.33527 | -48.33872 | 29891 ft | 456 kts | 112° |
| 2026-05-05 18:29 | -22.34526 | -48.30670 | 29392 ft | 451 kts | 112° |
| 2026-05-05 18:29 | -22.35519 | -48.27495 | 28887 ft | 446 kts | 112° |
| 2026-05-05 18:30 | -22.36508 | -48.24323 | 28393 ft | 444 kts | 112° |
| 2026-05-05 18:30 | -22.37494 | -48.21160 | 27908 ft | 439 kts | 112° |
| 2026-05-05 18:30 | -22.38447 | -48.18098 | 27437 ft | 436 kts | 111° |
| 2026-05-05 18:30 | -22.39414 | -48.14996 | 26963 ft | 434 kts | 111° |
| 2026-05-05 18:31 | -22.40367 | -48.11931 | 26496 ft | 431 kts | 111° |
| 2026-05-05 18:31 | -22.41325 | -48.08847 | 26020 ft | 428 kts | 111° |
| 2026-05-05 18:31 | -22.42260 | -48.05836 | 25559 ft | 425 kts | 111° |
| 2026-05-05 18:31 | -22.43206 | -48.02792 | 25090 ft | 422 kts | 111° |
| 2026-05-05 18:32 | -22.44132 | -47.99804 | 24630 ft | 419 kts | 111° |
| 2026-05-05 18:32 | -22.45047 | -47.96854 | 24175 ft | 416 kts | 111° |
| 2026-05-05 18:32 | -22.45959 | -47.93906 | 23717 ft | 413 kts | 110° |
| 2026-05-05 18:32 | -22.46877 | -47.90945 | 23245 ft | 409 kts | 111° |
| 2026-05-05 18:33 | -22.48183 | -47.88287 | 22813 ft | 402 kts | 129° |
| 2026-05-05 18:33 | -22.49906 | -47.85935 | 22365 ft | 401 kts | 130° |
| 2026-05-05 18:33 | -22.51656 | -47.83595 | 21916 ft | 397 kts | 130° |
| 2026-05-05 18:33 | -22.53387 | -47.81289 | 21472 ft | 393 kts | 130° |
| 2026-05-05 18:34 | -22.55102 | -47.79004 | 21034 ft | 389 kts | 131° |
| 2026-05-05 18:34 | -22.56799 | -47.76745 | 20606 ft | 386 kts | 130° |
| 2026-05-05 18:34 | -22.58492 | -47.74489 | 20178 ft | 383 kts | 130° |
| 2026-05-05 18:34 | -22.60158 | -47.72269 | 19758 ft | 380 kts | 130° |
| 2026-05-05 18:35 | -22.61820 | -47.70054 | 19339 ft | 377 kts | 130° |
| 2026-05-05 18:35 | -22.63467 | -47.67857 | 18925 ft | 374 kts | 130° |
| 2026-05-05 18:35 | -22.65098 | -47.65681 | 18512 ft | 371 kts | 130° |
| 2026-05-05 18:35 | -22.66719 | -47.63517 | 18101 ft | 368 kts | 130° |
| 2026-05-05 18:36 | -22.68322 | -47.61377 | 17697 ft | 365 kts | 130° |
| 2026-05-05 18:36 | -22.69918 | -47.59248 | 17297 ft | 361 kts | 131° |
| 2026-05-05 18:36 | -22.71760 | -47.57434 | 17107 ft | 355 kts | 142° |
| 2026-05-05 18:36 | -22.73723 | -47.55770 | 16948 ft | 358 kts | 142° |
| 2026-05-05 18:37 | -22.75701 | -47.54099 | 16571 ft | 358 kts | 142° |
| 2026-05-05 18:37 | -22.77669 | -47.52438 | 16177 ft | 356 kts | 142° |
| 2026-05-05 18:37 | -22.79593 | -47.50813 | 15789 ft | 353 kts | 142° |
| 2026-05-05 18:37 | -22.81537 | -47.49171 | 15395 ft | 350 kts | 142° |
| 2026-05-05 18:38 | -22.83462 | -47.47545 | 15002 ft | 347 kts | 142° |
| 2026-05-05 18:38 | -22.85360 | -47.45941 | 14625 ft | 345 kts | 142° |
| 2026-05-05 18:38 | -22.87271 | -47.44325 | 14244 ft | 345 kts | 142° |
| 2026-05-05 18:38 | -22.89140 | -47.42745 | 13864 ft | 343 kts | 142° |
| 2026-05-05 18:39 | -22.91010 | -47.41163 | 13485 ft | 339 kts | 142° |
| 2026-05-05 18:39 | -22.92875 | -47.39584 | 13111 ft | 337 kts | 142° |
| 2026-05-05 18:39 | -22.94715 | -47.38027 | 12735 ft | 336 kts | 141° |
| 2026-05-05 18:39 | -22.96551 | -47.36472 | 12379 ft | 335 kts | 141° |
| 2026-05-05 18:40 | -22.98227 | -47.34681 | 12002 ft | 333 kts | 128° |
| 2026-05-05 18:40 | -22.99568 | -47.32824 | 11628 ft | 328 kts | 127° |
| 2026-05-05 18:40 | -23.00958 | -47.30891 | 11230 ft | 319 kts | 127° |
| 2026-05-05 18:40 | -23.02306 | -47.29014 | 10850 ft | 310 kts | 127° |
| 2026-05-05 18:41 | -23.03608 | -47.27200 | 10474 ft | 301 kts | 127° |
| 2026-05-05 18:41 | -23.04879 | -47.25429 | 10114 ft | 293 kts | 127° |
| 2026-05-05 18:41 | -23.06119 | -47.23700 | 9776 ft | 287 kts | 127° |
| 2026-05-05 18:41 | -23.07361 | -47.21969 | 9438 ft | 286 kts | 127° |
| 2026-05-05 18:42 | -23.08583 | -47.20264 | 9090 ft | 287 kts | 127° |
| 2026-05-05 18:42 | -23.09802 | -47.18563 | 8738 ft | 287 kts | 127° |
| 2026-05-05 18:42 | -23.11026 | -47.16856 | 8389 ft | 285 kts | 127° |
| 2026-05-05 18:42 | -23.12256 | -47.15138 | 8024 ft | 284 kts | 127° |
| 2026-05-05 18:43 | -23.13466 | -47.13449 | 7732 ft | 282 kts | 127° |
| 2026-05-05 18:43 | -23.14667 | -47.11771 | 7503 ft | 283 kts | 127° |
| 2026-05-05 18:43 | -23.15851 | -47.10052 | 7200 ft | 282 kts | 117° |
| 2026-05-05 18:43 | -23.16293 | -47.08015 | 6938 ft | 278 kts | 83° |
| 2026-05-05 18:44 | -23.15636 | -47.06160 | 6793 ft | 249 kts | 47° |
| 2026-05-05 18:44 | -23.14469 | -47.04942 | 6787 ft | 223 kts | 38° |
| 2026-05-05 18:44 | -23.13067 | -47.04310 | 6556 ft | 221 kts | 360° |
| 2026-05-05 18:44 | -23.11570 | -47.04436 | 6192 ft | 212 kts | 354° |
| 2026-05-05 18:45 | -23.10086 | -47.04617 | 5646 ft | 218 kts | 353° |
| 2026-05-05 18:45 | -23.08532 | -47.04818 | 5029 ft | 228 kts | 353° |
| 2026-05-05 18:45 | -23.06963 | -47.05190 | 4362 ft | 230 kts | 332° |
| 2026-05-05 18:45 | -23.05841 | -47.06336 | 3778 ft | 218 kts | 308° |
| 2026-05-05 18:46 | -23.04953 | -47.07566 | 3479 ft | 198 kts | 307° |
| 2026-05-05 18:46 | -23.04149 | -47.08683 | 3280 ft | 174 kts | 307° |
| 2026-05-05 18:46 | -23.03427 | -47.09689 | 2987 ft | 160 kts | 307° |
| 2026-05-05 18:46 | -23.02776 | -47.10597 | 2743 ft | 147 kts | 307° |
| 2026-05-05 18:47 | -23.02157 | -47.11460 | 2509 ft | 144 kts | 307° |
| 2026-05-05 18:47 | -23.01557 | -47.12323 | 2194 ft | 142 kts | 308° |
| 2026-05-05 18:47 | -23.01090 | -47.12963 | 2180 ft | 54 kts | 311° |
| 2026-05-05 18:47 | -23.00870 | -47.13273 | 2179 ft | 42 kts | 310° |
| 2026-05-05 18:48 | -23.00777 | -47.13447 | 2179 ft | 16 kts | 288° |
| 2026-05-05 18:48 | -23.00747 | -47.13569 | 2179 ft | 16 kts | 280° |
| 2026-05-05 18:48 | -23.00736 | -47.13671 | 2179 ft | 6 kts | 272° |
| 2026-05-05 18:48 | -23.00733 | -47.13721 | 2179 ft | 7 kts | 276° |
| 2026-05-05 18:49 | -23.00727 | -47.13777 | 2179 ft | 7 kts | 277° |
| 2026-05-05 18:49 | -23.00719 | -47.13839 | 2179 ft | 8 kts | 277° |
| 2026-05-05 18:49 | -23.00710 | -47.13907 | 2178 ft | 9 kts | 281° |
| 2026-05-05 18:49 | -23.00692 | -47.13977 | 2178 ft | 9 kts | 296° |
| 2026-05-05 18:50 | -23.00657 | -47.14044 | 2178 ft | 9 kts | 307° |
| 2026-05-05 18:50 | -23.00613 | -47.14105 | 2178 ft | 10 kts | 307° |
| 2026-05-05 18:50 | -23.00566 | -47.14170 | 2178 ft | 11 kts | 308° |
| 2026-05-05 18:50 | -23.00515 | -47.14241 | 2178 ft | 12 kts | 306° |
| 2026-05-05 18:51 | -23.00463 | -47.14318 | 2178 ft | 12 kts | 307° |
| 2026-05-05 18:51 | -23.00407 | -47.14397 | 2178 ft | 13 kts | 309° |
| 2026-05-05 18:51 | -23.00345 | -47.14477 | 2178 ft | 14 kts | 308° |
| 2026-05-05 18:51 | -23.00283 | -47.14565 | 2177 ft | 14 kts | 306° |
| 2026-05-05 18:52 | -23.00265 | -47.14627 | 2177 ft | 7 kts | 235° |
| 2026-05-05 18:52 | -23.00306 | -47.14664 | 2177 ft | 8 kts | 218° |
| 2026-05-05 18:52 | -23.00348 | -47.14699 | 2177 ft | 5 kts | 217° |
| 2026-05-05 18:52 | -23.00381 | -47.14726 | 2177 ft | 6 kts | 218° |
| 2026-05-05 18:53 | -23.00409 | -47.14761 | 2177 ft | 6 kts | 272° |
| 2026-05-05 18:53 | -23.00386 | -47.14799 | 2177 ft | 2 kts | 308° |
| 2026-05-05 18:53 | -23.00374 | -47.14816 | 2177 ft | 3 kts | 307° |
| 2026-05-05 18:53 | -23.00374 | -47.14840 | 2177 ft | 4 kts | 197° |
| 2026-05-05 18:54 | -23.00398 | -47.14854 | 2177 ft | 3 kts | 214° |
| 2026-05-05 18:54 | -23.00410 | -47.14863 | 2177 ft | 0 kts | 216° |